This is the latest recevied weather packets stored in our database for station/object K1ABC. If no packets are shown the sender has not sent any weather packets the latest 10 day(s).
| Time | Temp. | Humidity | Pressure | Rain* | Wind** | Luminosity | Snow |
|---|---|---|---|---|---|---|---|
| 1777717195 | 7.78° C | 76% | 1011.4 hPa | 0 mm | - | - | - |
| 1777716362 | 7.78° C | 74% | 1011 hPa | 0 mm | - | - | - |
| 1777715924 | 7.78° C | 72% | 1011 hPa | 0 mm | - | - | - |
| 1777715594 | 7.78° C | 73% | 1011.1 hPa | 0 mm | - | - | - |
| 1777714763 | 8.33° C | 70% | 1011.3 hPa | 0 mm | - | - | - |
| 1777714399 | 8.33° C | 70% | 1011.2 hPa | 0 mm | - | - | - |
| 1777713467 | 7.78° C | 69% | 1010.8 hPa | 0 mm | - | - | - |
| 1777713211 | 7.78° C | 69% | 1010.7 hPa | 0 mm | - | - | - |
| 1777711436 | 7.22° C | 71% | 1010.8 hPa | 0 mm | - | - | - |
| 1777710804 | 7.22° C | 72% | 1010.8 hPa | 0 mm | - | - | - |
| 1777710313 | 7.22° C | 72% | 1011.1 hPa | 0 mm | - | - | - |
| 1777710065 | 7.22° C | 73% | 1011 hPa | 0 mm | - | - | - |
| 1777709940 | 7.22° C | 73% | 1011 hPa | 0 mm | - | - | - |
| 1777709442 | 7.22° C | 74% | 1010.9 hPa | 0 mm | - | - | - |
| 1777709189 | 7.22° C | 74% | 1010.8 hPa | 0 mm | - | - | - |
| 1777708824 | 7.22° C | 74% | 1011.2 hPa | 0 mm | - | - | - |
| 1777706750 | 7.22° C | 72% | 1011.5 hPa | 0 mm | - | - | - |
| 1777703657 | 7.22° C | 71% | 1011.5 hPa | 0 mm | - | - | - |
| 1777703533 | 7.22° C | 70% | 1011.5 hPa | 0 mm | - | - | - |
| 1777702146 | 8.33° C | 66% | 1011.5 hPa | 0 mm | - | - | - |
| 1777701655 | 8.33° C | 65% | 1011.6 hPa | 0 mm | - | - | - |
| 1777701287 | 8.33° C | 65% | 1011.7 hPa | 0 mm | - | - | - |
| 1777700792 | 8.33° C | 65% | 1011.7 hPa | 0 mm | - | - | - |
| 1777699607 | 8.89° C | 62% | 1011.7 hPa | 0 mm | - | - | - |
| 1777698793 | 9.44° C | 59% | 1011.8 hPa | 0 mm | - | - | - |
* Rain latest hour (hover to see other rain measurements)
** Current wind speed in m/s (hover to see current wind gust speed)